createdAt,value
2018-08-31T00:00:12.308Z,1012.94
2018-08-31T00:00:52.697Z,1012.93
2018-08-31T00:01:33.096Z,1012.91
2018-08-31T00:02:13.472Z,1012.93
2018-08-31T00:02:53.832Z,1012.92
2018-08-31T00:03:34.262Z,1012.94
2018-08-31T00:04:14.630Z,1012.94
2018-08-31T00:04:55.065Z,1012.92
2018-08-31T00:05:35.491Z,1012.92
2018-08-31T00:06:15.869Z,1012.93
2018-08-31T00:06:56.328Z,1012.93
2018-08-31T00:07:36.704Z,1012.92
2018-08-31T00:08:17.133Z,1012.91
2018-08-31T00:08:57.508Z,1012.92
2018-08-31T00:09:37.877Z,1012.94
2018-08-31T00:10:18.300Z,1012.91
2018-08-31T00:10:58.667Z,1012.91
2018-08-31T00:11:39.068Z,1012.93
2018-08-31T00:12:19.450Z,1012.91
2018-08-31T00:12:59.862Z,1012.88
2018-08-31T00:13:40.288Z,1012.91
2018-08-31T00:14:20.640Z,1012.9
2018-08-31T00:15:01.057Z,1012.88
2018-08-31T00:15:41.446Z,1012.89
2018-08-31T00:16:21.851Z,1012.88
2018-08-31T00:17:02.254Z,1012.87
2018-08-31T00:17:42.648Z,1012.88
2018-08-31T00:18:23.081Z,1012.86
2018-08-31T00:19:03.429Z,1012.8
2018-08-31T00:19:43.877Z,1012.81
2018-08-31T00:20:24.236Z,1012.8
2018-08-31T00:21:04.739Z,1012.75
2018-08-31T00:21:45.062Z,1012.84
2018-08-31T00:22:25.449Z,1012.8
2018-08-31T00:23:05.838Z,1012.81
2018-08-31T00:23:46.193Z,1012.82
2018-08-31T00:24:26.632Z,1012.82
2018-08-31T00:25:06.988Z,1012.82
2018-08-31T00:25:47.398Z,1012.82
2018-08-31T00:26:27.777Z,1012.85
2018-08-31T00:27:08.127Z,1012.83
2018-08-31T00:27:48.577Z,1012.78
2018-08-31T00:28:28.964Z,1012.79
2018-08-31T00:29:09.382Z,1012.78
2018-08-31T00:29:49.811Z,1012.75
2018-08-31T00:30:30.167Z,1012.75
2018-08-31T00:31:10.627Z,1012.67
2018-08-31T00:31:51.002Z,1012.7
2018-08-31T00:32:31.391Z,1012.67
2018-08-31T00:33:11.841Z,1012.68
2018-08-31T00:33:52.217Z,1012.65
2018-08-31T00:34:32.631Z,1012.65
2018-08-31T00:35:12.989Z,1012.63
2018-08-31T00:35:53.430Z,1012.61
2018-08-31T00:36:33.829Z,1012.64
2018-08-31T00:37:14.246Z,1012.63
2018-08-31T00:37:54.600Z,1012.61
2018-08-31T00:38:34.984Z,1012.62
2018-08-31T00:39:15.396Z,1012.66
2018-08-31T00:39:55.797Z,1012.67
2018-08-31T00:40:36.240Z,1012.67
2018-08-31T00:41:16.597Z,1012.65
2018-08-31T00:41:57.046Z,1012.66
2018-08-31T00:42:37.396Z,1012.67
2018-08-31T00:43:17.829Z,1012.68
2018-08-31T00:43:58.201Z,1012.65
2018-08-31T00:44:38.602Z,1012.63
2018-08-31T00:45:19.058Z,1012.62
2018-08-31T00:45:59.411Z,1012.61
2018-08-31T00:46:39.863Z,1012.61
2018-08-31T00:47:20.230Z,1012.63
2018-08-31T00:48:00.657Z,1012.6
2018-08-31T00:48:41.064Z,1012.61
2018-08-31T00:49:21.439Z,1012.57
2018-08-31T00:50:01.827Z,1012.59
2018-08-31T00:50:42.267Z,1012.61
2018-08-31T00:53:02.172Z,1012.68
2018-08-31T00:53:42.508Z,1012.62
2018-08-31T00:54:22.910Z,1012.61
2018-08-31T00:55:03.261Z,1012.63
2018-08-31T00:55:43.725Z,1012.66
2018-08-31T00:56:24.071Z,1012.62
2018-08-31T00:57:04.496Z,1012.67
2018-08-31T00:57:44.911Z,1012.66
2018-08-31T00:58:25.364Z,1012.62
2018-08-31T00:59:05.734Z,1012.64
2018-08-31T00:59:46.113Z,1012.63
2018-08-31T01:00:26.486Z,1012.64
2018-08-31T01:01:07.071Z,1012.62
2018-08-31T01:01:47.307Z,1012.62
2018-08-31T01:02:27.687Z,1012.6
2018-08-31T01:03:08.183Z,1012.62
2018-08-31T01:03:48.541Z,1012.65
2018-08-31T01:04:28.985Z,1012.54
2018-08-31T01:05:09.341Z,1012.53
2018-08-31T01:05:49.731Z,1012.56
2018-08-31T01:06:30.192Z,1012.54
2018-08-31T01:07:10.666Z,1012.53
2018-08-31T01:07:51.003Z,1012.58
2018-08-31T01:08:31.449Z,1012.56
2018-08-31T01:09:11.824Z,1012.57
2018-08-31T01:09:52.269Z,1012.55
2018-08-31T01:10:32.670Z,1012.55
2018-08-31T01:11:13.099Z,1012.54
2018-08-31T01:13:10.777Z,1012.61
2018-08-31T01:13:50.962Z,1012.59
2018-08-31T01:14:31.346Z,1012.6
2018-08-31T01:15:11.747Z,1012.59
2018-08-31T01:15:52.159Z,1012.59
2018-08-31T01:16:32.600Z,1012.57
2018-08-31T01:17:12.953Z,1012.58
2018-08-31T01:17:53.361Z,1012.58
2018-08-31T01:18:33.771Z,1012.57
2018-08-31T01:19:14.138Z,1012.53
2018-08-31T01:19:54.612Z,1012.55
2018-08-31T01:20:34.939Z,1012.58
2018-08-31T01:21:15.379Z,1012.52
2018-08-31T01:21:55.726Z,1012.57
2018-08-31T01:22:36.143Z,1012.58
2018-08-31T01:23:16.633Z,1012.59
2018-08-31T01:23:57.028Z,1012.59
2018-08-31T01:24:37.393Z,1012.55
2018-08-31T01:25:17.797Z,1012.58
2018-08-31T01:25:58.209Z,1012.57
2018-08-31T01:26:38.647Z,1012.59
2018-08-31T01:27:19.003Z,1012.6
2018-08-31T01:27:59.345Z,1012.57
2018-08-31T01:28:39.867Z,1012.58
2018-08-31T01:29:20.227Z,1012.59
2018-08-31T01:30:00.609Z,1012.58
2018-08-31T01:30:40.999Z,1012.56
2018-08-31T01:31:21.387Z,1012.54
2018-08-31T01:32:01.866Z,1012.54
2018-08-31T01:34:21.407Z,1012.56
2018-08-31T01:35:01.826Z,1012.53
2018-08-31T01:35:42.249Z,1012.57
2018-08-31T01:36:22.644Z,1012.56
2018-08-31T01:37:03.045Z,1012.61
2018-08-31T01:37:43.416Z,1012.63
2018-08-31T01:38:23.824Z,1012.6
2018-08-31T01:39:04.270Z,1012.63
2018-08-31T01:39:44.657Z,1012.61
2018-08-31T01:40:25.049Z,1012.59
2018-08-31T01:41:05.413Z,1012.6
2018-08-31T01:41:45.811Z,1012.59
2018-08-31T01:42:26.246Z,1012.6
2018-08-31T01:43:06.676Z,1012.59
2018-08-31T01:43:47.023Z,1012.58
2018-08-31T01:44:27.416Z,1012.6
2018-08-31T01:45:07.848Z,1012.55
2018-08-31T01:45:48.274Z,1012.6
2018-08-31T01:46:28.667Z,1012.59
2018-08-31T01:47:09.061Z,1012.57
2018-08-31T01:47:49.468Z,1012.61
2018-08-31T01:48:29.855Z,1012.59
2018-08-31T01:49:10.266Z,1012.61
2018-08-31T01:49:50.661Z,1012.61
2018-08-31T01:50:31.059Z,1012.66
2018-08-31T01:51:11.506Z,1012.62
2018-08-31T01:51:51.855Z,1012.67
2018-08-31T01:52:32.239Z,1012.65
2018-08-31T01:53:12.652Z,1012.64
2018-08-31T01:53:53.039Z,1012.66
2018-08-31T01:54:33.450Z,1012.64
2018-08-31T01:55:13.859Z,1012.65
2018-08-31T01:55:54.293Z,1012.64
2018-08-31T01:56:34.711Z,1012.64
2018-08-31T01:57:15.083Z,1012.63
2018-08-31T01:57:55.491Z,1012.63
2018-08-31T01:58:35.866Z,1012.64
2018-08-31T01:59:16.282Z,1012.58
2018-08-31T01:59:56.681Z,1012.62
2018-08-31T02:00:37.076Z,1012.59
2018-08-31T02:01:17.490Z,1012.59
2018-08-31T02:01:57.838Z,1012.63
2018-08-31T02:02:38.302Z,1012.63
2018-08-31T02:03:18.677Z,1012.61
2018-08-31T02:03:59.119Z,1012.58
2018-08-31T02:04:39.456Z,1012.63
2018-08-31T02:05:19.873Z,1012.61
2018-08-31T02:06:00.261Z,1012.56
2018-08-31T02:06:40.690Z,1012.57
2018-08-31T02:07:21.049Z,1012.59
2018-08-31T02:08:01.403Z,1012.54
2018-08-31T02:08:41.804Z,1012.57
2018-08-31T02:09:22.207Z,1012.58
2018-08-31T02:10:02.588Z,1012.57
2018-08-31T02:10:42.989Z,1012.57
2018-08-31T02:11:23.376Z,1012.55
2018-08-31T02:12:03.797Z,1012.57
2018-08-31T02:12:44.247Z,1012.55
2018-08-31T02:13:24.600Z,1012.54
2018-08-31T02:14:04.976Z,1012.59
2018-08-31T02:14:45.389Z,1012.54
2018-08-31T02:15:25.799Z,1012.56
2018-08-31T02:16:06.213Z,1012.56
2018-08-31T02:16:46.551Z,1012.59
2018-08-31T02:17:26.966Z,1012.56
2018-08-31T02:18:07.382Z,1012.6
2018-08-31T02:18:47.810Z,1012.56
2018-08-31T02:19:28.234Z,1012.57
2018-08-31T02:20:08.646Z,1012.58
2018-08-31T02:20:49.039Z,1012.58
2018-08-31T02:21:29.477Z,1012.57
2018-08-31T02:22:09.885Z,1012.58
2018-08-31T02:22:50.304Z,1012.61
2018-08-31T02:23:30.710Z,1012.6
2018-08-31T02:24:11.107Z,1012.57
2018-08-31T02:24:51.496Z,1012.54
2018-08-31T02:25:31.904Z,1012.58
2018-08-31T02:26:12.305Z,1012.57
2018-08-31T02:26:52.717Z,1012.57
2018-08-31T02:27:33.121Z,1012.55
2018-08-31T02:28:13.538Z,1012.53
2018-08-31T02:28:53.897Z,1012.53
2018-08-31T02:29:34.326Z,1012.52
2018-08-31T02:30:14.755Z,1012.51
2018-08-31T02:30:55.151Z,1012.51
2018-08-31T02:31:35.608Z,1012.53
2018-08-31T02:32:15.976Z,1012.52
2018-08-31T02:32:56.342Z,1012.48
2018-08-31T02:33:36.784Z,1012.49
2018-08-31T02:34:17.097Z,1012.49
2018-08-31T02:34:57.544Z,1012.52
2018-08-31T02:35:37.930Z,1012.46
2018-08-31T02:36:18.287Z,1012.5
2018-08-31T02:36:58.736Z,1012.52
2018-08-31T02:37:39.106Z,1012.55
2018-08-31T02:38:19.533Z,1012.53
2018-08-31T02:38:59.918Z,1012.55
2018-08-31T02:39:40.306Z,1012.55
2018-08-31T02:40:20.694Z,1012.52
2018-08-31T02:41:01.124Z,1012.53
2018-08-31T02:41:41.548Z,1012.53
2018-08-31T02:42:21.913Z,1012.51
2018-08-31T02:43:02.285Z,1012.51
2018-08-31T02:43:42.753Z,1012.49
2018-08-31T02:44:23.137Z,1012.48
2018-08-31T02:45:03.521Z,1012.5
2018-08-31T02:45:43.969Z,1012.49
2018-08-31T02:46:24.316Z,1012.47
2018-08-31T02:47:04.714Z,1012.48
2018-08-31T02:47:45.151Z,1012.48
2018-08-31T02:48:25.524Z,1012.52
2018-08-31T02:49:05.900Z,1012.51
2018-08-31T02:49:46.340Z,1012.5
2018-08-31T02:50:26.768Z,1012.5
2018-08-31T02:51:07.132Z,1012.52
2018-08-31T02:51:47.555Z,1012.5
2018-08-31T02:52:27.928Z,1012.5
2018-08-31T02:53:08.344Z,1012.48
2018-08-31T02:53:48.713Z,1012.49
2018-08-31T02:54:29.083Z,1012.47
2018-08-31T02:55:09.492Z,1012.48
2018-08-31T02:55:49.900Z,1012.5
2018-08-31T02:56:30.337Z,1012.48
2018-08-31T02:57:10.681Z,1012.5
2018-08-31T02:59:25.292Z,1012.49
2018-08-31T03:00:05.608Z,1012.49
2018-08-31T03:00:45.952Z,1012.48
2018-08-31T03:01:26.367Z,1012.47
2018-08-31T03:02:06.793Z,1012.47
2018-08-31T03:02:47.157Z,1012.47
2018-08-31T03:03:27.570Z,1012.45
2018-08-31T03:04:08.004Z,1012.47
2018-08-31T03:04:48.379Z,1012.49
2018-08-31T03:05:28.814Z,1012.48
2018-08-31T03:06:09.183Z,1012.49
2018-08-31T03:06:49.611Z,1012.47
2018-08-31T03:07:29.993Z,1012.46
2018-08-31T03:08:10.406Z,1012.47
2018-08-31T03:08:50.830Z,1012.48
2018-08-31T03:09:31.177Z,1012.46
2018-08-31T03:10:11.563Z,1012.49
2018-08-31T03:10:51.971Z,1012.52
2018-08-31T03:11:32.366Z,1012.51
2018-08-31T03:12:12.805Z,1012.46
2018-08-31T03:12:53.169Z,1012.51
2018-08-31T03:13:33.604Z,1012.5
2018-08-31T03:14:14.018Z,1012.5
2018-08-31T03:14:54.428Z,1012.5
2018-08-31T03:15:34.825Z,1012.5
2018-08-31T03:16:15.200Z,1012.51
2018-08-31T03:16:55.600Z,1012.5
2018-08-31T03:17:36.025Z,1012.45
2018-08-31T03:18:16.426Z,1012.47
2018-08-31T03:18:56.821Z,1012.49
2018-08-31T03:19:37.249Z,1012.47
2018-08-31T03:20:17.657Z,1012.48
2018-08-31T03:20:58.087Z,1012.47
2018-08-31T03:21:38.532Z,1012.51
2018-08-31T03:22:18.899Z,1012.53
2018-08-31T03:22:59.320Z,1012.52
2018-08-31T03:23:39.773Z,1012.54
2018-08-31T03:24:20.102Z,1012.51
2018-08-31T03:25:00.522Z,1012.49
2018-08-31T03:25:40.980Z,1012.51
2018-08-31T03:26:21.344Z,1012.52
2018-08-31T03:27:01.732Z,1012.48
2018-08-31T03:27:42.296Z,1012.5
2018-08-31T03:28:22.625Z,1012.47
2018-08-31T03:29:02.980Z,1012.46
2018-08-31T03:29:43.414Z,1012.47
2018-08-31T03:30:23.844Z,1012.46
2018-08-31T03:31:04.248Z,1012.45
2018-08-31T03:31:44.703Z,1012.41
2018-08-31T03:32:25.064Z,1012.42
2018-08-31T03:33:05.476Z,1012.42
2018-08-31T03:33:45.984Z,1012.42
2018-08-31T03:34:26.361Z,1012.48
2018-08-31T03:35:06.823Z,1012.41
2018-08-31T03:37:24.395Z,1012.43
2018-08-31T03:38:04.702Z,1012.45
2018-08-31T03:38:45.112Z,1012.43
2018-08-31T03:39:25.498Z,1012.43
2018-08-31T03:40:05.966Z,1012.46
2018-08-31T03:40:46.378Z,1012.47
2018-08-31T03:41:26.745Z,1012.5
2018-08-31T03:42:07.154Z,1012.47
2018-08-31T03:42:47.544Z,1012.44
2018-08-31T03:43:27.938Z,1012.43
2018-08-31T03:44:08.371Z,1012.49
2018-08-31T03:44:48.836Z,1012.47
2018-08-31T03:45:29.104Z,1012.49
2018-08-31T03:46:09.572Z,1012.46
2018-08-31T03:48:37.351Z,1012.47
2018-08-31T03:49:17.823Z,1012.45
2018-08-31T03:49:58.211Z,1012.42
2018-08-31T03:50:38.576Z,1012.42
2018-08-31T03:51:18.957Z,1012.4
2018-08-31T03:51:59.389Z,1012.41
2018-08-31T03:52:39.808Z,1012.42
2018-08-31T03:53:20.229Z,1012.4
2018-08-31T03:54:00.623Z,1012.38
2018-08-31T03:54:41.044Z,1012.4
2018-08-31T03:55:21.450Z,1012.37
2018-08-31T03:56:01.816Z,1012.4
2018-08-31T03:56:42.284Z,1012.37
2018-08-31T03:57:22.603Z,1012.4
2018-08-31T03:58:03.055Z,1012.45
2018-08-31T03:58:44.254Z,1012.43
2018-08-31T03:59:24.684Z,1012.4
2018-08-31T04:00:05.037Z,1012.43
2018-08-31T04:00:45.438Z,1012.37
2018-08-31T04:01:25.817Z,1012.42
2018-08-31T04:02:06.243Z,1012.43
2018-08-31T04:02:46.720Z,1012.44
2018-08-31T04:03:27.043Z,1012.43
2018-08-31T04:04:07.489Z,1012.41
2018-08-31T04:04:47.866Z,1012.43
2018-08-31T04:05:28.287Z,1012.41
2018-08-31T04:06:08.634Z,1012.42
2018-08-31T04:06:49.030Z,1012.41
2018-08-31T04:07:29.449Z,1012.43
2018-08-31T04:08:09.847Z,1012.47
2018-08-31T04:08:50.208Z,1012.43
2018-08-31T04:09:30.613Z,1012.39
2018-08-31T04:10:11.010Z,1012.44
2018-08-31T04:10:51.385Z,1012.46
2018-08-31T04:11:31.795Z,1012.48
2018-08-31T04:12:12.182Z,1012.45
2018-08-31T04:12:52.564Z,1012.42
2018-08-31T04:13:32.984Z,1012.44
2018-08-31T04:14:13.377Z,1012.44
2018-08-31T04:14:53.787Z,1012.42
2018-08-31T04:15:34.190Z,1012.46
2018-08-31T04:16:14.815Z,1012.45
2018-08-31T04:16:55.959Z,1012.44
2018-08-31T04:17:36.505Z,1012.43
2018-08-31T04:18:17.034Z,1012.44
2018-08-31T04:18:57.568Z,1012.43
2018-08-31T04:19:37.951Z,1012.48
2018-08-31T04:20:18.323Z,1012.47
2018-08-31T04:20:58.766Z,1012.51
2018-08-31T04:21:39.159Z,1012.47
2018-08-31T04:22:19.545Z,1012.45
2018-08-31T04:22:59.936Z,1012.46
2018-08-31T04:23:40.336Z,1012.48
2018-08-31T04:24:20.728Z,1012.45
2018-08-31T04:25:01.122Z,1012.45
2018-08-31T04:25:41.569Z,1012.44
2018-08-31T04:26:21.941Z,1012.44
2018-08-31T04:27:02.320Z,1012.41
2018-08-31T05:06:37.278Z,1012.54
2018-08-31T05:07:17.676Z,1012.51
2018-08-31T05:07:58.021Z,1012.45
2018-08-31T05:08:38.623Z,1012.49
2018-08-31T05:09:19.031Z,1012.52
2018-08-31T05:09:59.454Z,1012.54
2018-08-31T05:10:39.887Z,1012.53
2018-08-31T05:11:20.319Z,1012.54
2018-08-31T05:12:00.810Z,1012.56
2018-08-31T05:12:41.322Z,1012.55
2018-08-31T05:13:21.908Z,1012.6
2018-08-31T05:14:02.356Z,1012.58
2018-08-31T05:14:42.938Z,1012.59
2018-08-31T05:15:23.471Z,1012.59
2018-08-31T05:16:04.064Z,1012.59
2018-08-31T05:16:44.366Z,1012.57
2018-08-31T05:17:24.794Z,1012.61
2018-08-31T05:18:05.176Z,1012.61
2018-08-31T05:18:45.555Z,1012.62
2018-08-31T05:19:25.949Z,1012.61
2018-08-31T05:20:06.428Z,1012.63
2018-08-31T05:20:46.755Z,1012.61
2018-08-31T05:21:27.136Z,1012.63
2018-08-31T05:22:07.515Z,1012.66
2018-08-31T05:22:47.986Z,1012.64
2018-08-31T05:23:28.437Z,1012.63
2018-08-31T05:24:08.862Z,1012.62
2018-08-31T05:24:49.269Z,1012.65
2018-08-31T05:25:29.684Z,1012.66
2018-08-31T05:26:10.136Z,1012.64
2018-08-31T05:26:50.476Z,1012.66
2018-08-31T05:27:30.920Z,1012.68
2018-08-31T05:28:11.264Z,1012.66
2018-08-31T05:28:51.675Z,1012.63
2018-08-31T05:29:32.091Z,1012.68
2018-08-31T05:30:12.501Z,1012.69
2018-08-31T05:30:52.907Z,1012.71
2018-08-31T05:31:33.284Z,1012.72
2018-08-31T05:32:13.711Z,1012.71
2018-08-31T05:32:54.097Z,1012.74
2018-08-31T05:33:34.506Z,1012.74
2018-08-31T05:34:14.893Z,1012.73
2018-08-31T05:34:55.287Z,1012.72
2018-08-31T05:35:35.668Z,1012.74
2018-08-31T05:36:16.056Z,1012.77
2018-08-31T05:36:56.441Z,1012.77
2018-08-31T05:37:36.868Z,1012.74
2018-08-31T05:38:17.276Z,1012.76
2018-08-31T05:38:57.645Z,1012.79
2018-08-31T05:39:38.036Z,1012.77
2018-08-31T05:40:18.427Z,1012.77
2018-08-31T05:40:58.917Z,1012.79
2018-08-31T05:41:40.011Z,1012.76
2018-08-31T05:42:20.806Z,1012.76
2018-08-31T05:43:01.235Z,1012.77
2018-08-31T05:43:41.656Z,1012.76
2018-08-31T05:44:22.051Z,1012.78
2018-08-31T05:45:02.489Z,1012.79
2018-08-31T05:45:42.827Z,1012.77
2018-08-31T05:46:23.276Z,1012.78
2018-08-31T05:47:03.700Z,1012.77
2018-08-31T05:47:44.132Z,1012.78
2018-08-31T05:48:24.599Z,1012.8
2018-08-31T05:49:05.054Z,1012.79
2018-08-31T05:49:45.439Z,1012.84
2018-08-31T05:50:25.880Z,1012.81
2018-08-31T05:51:06.308Z,1012.85
2018-08-31T05:51:46.717Z,1012.86
2018-08-31T05:52:27.093Z,1012.85
2018-08-31T05:56:55.942Z,1012.88
2018-08-31T05:57:49.428Z,1012.92
2018-08-31T05:58:41.150Z,1012.9
2018-08-31T05:59:35.081Z,1012.92
2018-08-31T06:00:29.962Z,1012.91
2018-08-31T06:01:22.725Z,1012.96
2018-08-31T06:02:04.746Z,1012.94
2018-08-31T06:02:45.178Z,1012.94
2018-08-31T06:03:25.563Z,1012.94
2018-08-31T06:04:06.121Z,1012.93
2018-08-31T06:04:47.204Z,1012.95
2018-08-31T06:05:27.195Z,1012.94
2018-08-31T06:06:07.711Z,1012.97
2018-08-31T06:06:48.298Z,1012.99
2018-08-31T06:07:29.461Z,1012.97
2018-08-31T06:08:10.729Z,1012.99
2018-08-31T06:08:50.659Z,1012.97
2018-08-31T06:09:31.780Z,1013
2018-08-31T06:10:12.550Z,1013.04
2018-08-31T06:10:53.734Z,1013.03
2018-08-31T06:11:34.123Z,1012.99
2018-08-31T06:12:14.692Z,1013.06
2018-08-31T06:12:55.554Z,1013.05
2018-08-31T06:13:36.166Z,1013.07
2018-08-31T06:14:16.641Z,1013.07
2018-08-31T06:14:56.996Z,1013.06
2018-08-31T06:15:37.838Z,1013.08
2018-08-31T06:16:18.221Z,1013.08
2018-08-31T06:16:58.696Z,1013.06
2018-08-31T06:17:39.088Z,1013.11
2018-08-31T06:18:19.521Z,1013.08
2018-08-31T06:19:00.099Z,1013.09
2018-08-31T06:19:40.403Z,1013.08
2018-08-31T06:20:20.896Z,1013.07
2018-08-31T06:21:01.355Z,1013.1
2018-08-31T06:21:41.714Z,1013.05
2018-08-31T06:22:22.184Z,1013.08
2018-08-31T06:23:02.604Z,1013.08
2018-08-31T06:23:43.052Z,1013.13
2018-08-31T06:24:23.705Z,1013.07
2018-08-31T06:25:04.077Z,1013.1
2018-08-31T06:25:46.916Z,1013.11
2018-08-31T06:26:28.508Z,1013.12
2018-08-31T06:27:10.359Z,1013.12
2018-08-31T06:27:50.658Z,1013.14
2018-08-31T06:28:31.191Z,1013.1
2018-08-31T06:29:11.659Z,1013.12
2018-08-31T06:29:52.067Z,1013.15
2018-08-31T06:30:32.490Z,1013.18
2018-08-31T06:31:13.397Z,1013.17
2018-08-31T06:31:56.305Z,1013.18
2018-08-31T06:32:36.805Z,1013.16
2018-08-31T06:33:18.112Z,1013.16
2018-08-31T06:34:03.613Z,1013.19
2018-08-31T06:34:46.406Z,1013.18
2018-08-31T06:35:33.500Z,1013.18
2018-08-31T06:36:13.922Z,1013.2
2018-08-31T06:36:54.610Z,1013.18
2018-08-31T06:37:35.801Z,1013.2
2018-08-31T06:38:16.305Z,1013.21
2018-08-31T06:38:56.770Z,1013.2
2018-08-31T06:39:38.957Z,1013.22
2018-08-31T06:40:19.195Z,1013.21
2018-08-31T06:41:00.837Z,1013.24
2018-08-31T06:41:41.384Z,1013.24
2018-08-31T06:42:21.728Z,1013.23
2018-08-31T06:43:02.133Z,1013.23
2018-08-31T06:43:43.021Z,1013.22
2018-08-31T06:44:23.491Z,1013.26
2018-08-31T06:45:03.856Z,1013.25
2018-08-31T06:45:44.345Z,1013.27
2018-08-31T06:46:25.747Z,1013.26
2018-08-31T06:47:06.387Z,1013.24
2018-08-31T06:47:48.952Z,1013.28
2018-08-31T06:48:31.004Z,1013.33
2018-08-31T06:49:20.113Z,1013.26
2018-08-31T06:50:00.635Z,1013.3
2018-08-31T06:50:41.419Z,1013.28
2018-08-31T06:51:23.426Z,1013.25
2018-08-31T06:52:04.188Z,1013.3
2018-08-31T06:52:45.148Z,1013.32
2018-08-31T06:53:25.552Z,1013.28
2018-08-31T06:54:06.197Z,1013.3
2018-08-31T06:54:46.396Z,1013.27
2018-08-31T06:55:26.807Z,1013.29
2018-08-31T06:56:07.502Z,1013.28
2018-08-31T06:56:47.628Z,1013.29
2018-08-31T06:57:28.261Z,1013.32
2018-08-31T06:58:09.637Z,1013.28
2018-08-31T06:58:52.458Z,1013.29
2018-08-31T06:59:32.873Z,1013.29
2018-08-31T07:00:16.358Z,1013.31
2018-08-31T07:02:32.926Z,1013.35
2018-08-31T07:03:13.584Z,1013.37
2018-08-31T07:03:57.249Z,1013.34
2018-08-31T07:06:31.023Z,1013.36
2018-08-31T07:09:04.603Z,1013.37
2018-08-31T07:10:03.953Z,1013.36
2018-08-31T07:10:58.719Z,1013.38
2018-08-31T07:11:38.126Z,1013.39
2018-08-31T07:12:34.443Z,1013.36
2018-08-31T07:13:14.817Z,1013.34
2018-08-31T07:13:55.396Z,1013.44
2018-08-31T07:14:36.897Z,1013.39
2018-08-31T07:15:16.741Z,1013.4
2018-08-31T07:15:57.172Z,1013.38
2018-08-31T07:16:37.759Z,1013.41
2018-08-31T07:17:18.176Z,1013.37
2018-08-31T07:17:58.615Z,1013.42
2018-08-31T07:18:39.021Z,1013.44
2018-08-31T07:19:19.444Z,1013.39
2018-08-31T07:19:59.840Z,1013.4
2018-08-31T07:20:40.300Z,1013.4
2018-08-31T07:21:20.734Z,1013.41
2018-08-31T07:22:01.123Z,1013.38
2018-08-31T07:22:41.649Z,1013.38
2018-08-31T07:23:22.103Z,1013.42
2018-08-31T07:24:02.523Z,1013.44
2018-08-31T07:24:42.910Z,1013.45
2018-08-31T07:25:23.599Z,1013.43
2018-08-31T07:26:04.103Z,1013.46
2018-08-31T07:26:44.574Z,1013.44
2018-08-31T07:27:25.358Z,1013.47
2018-08-31T07:28:06.011Z,1013.44
2018-08-31T07:32:07.776Z,1013.45
2018-08-31T07:32:48.228Z,1013.46
2018-08-31T07:33:28.635Z,1013.45
2018-08-31T07:34:09.104Z,1013.44
2018-08-31T07:34:49.622Z,1013.46
2018-08-31T07:35:29.926Z,1013.48
2018-08-31T07:36:10.352Z,1013.46
2018-08-31T07:36:50.854Z,1013.47
2018-08-31T07:37:32.238Z,1013.48
2018-08-31T07:38:12.841Z,1013.51
2018-08-31T07:38:53.430Z,1013.47
2018-08-31T07:39:33.716Z,1013.49
2018-08-31T07:40:14.250Z,1013.53
2018-08-31T07:40:54.818Z,1013.53
2018-08-31T07:41:35.513Z,1013.53
2018-08-31T07:42:16.283Z,1013.51
2018-08-31T07:42:56.725Z,1013.52
2018-08-31T07:43:37.467Z,1013.53
2018-08-31T07:44:17.957Z,1013.54
2018-08-31T07:44:58.710Z,1013.55
2018-08-31T07:45:38.948Z,1013.55
2018-08-31T07:46:19.471Z,1013.49
2018-08-31T07:46:59.801Z,1013.53
2018-08-31T07:47:40.284Z,1013.55
2018-08-31T07:48:20.687Z,1013.53
2018-08-31T07:49:01.027Z,1013.52
2018-08-31T07:49:41.506Z,1013.56
2018-08-31T07:50:22.269Z,1013.55
2018-08-31T07:51:02.635Z,1013.57
2018-08-31T07:51:43.024Z,1013.57
2018-08-31T07:52:24.075Z,1013.58
2018-08-31T07:53:04.439Z,1013.59
2018-08-31T07:53:44.821Z,1013.6
2018-08-31T07:54:25.310Z,1013.58
2018-08-31T07:55:05.802Z,1013.59
2018-08-31T07:55:46.288Z,1013.59
2018-08-31T07:56:26.689Z,1013.6
2018-08-31T07:57:07.187Z,1013.62
2018-08-31T07:57:47.725Z,1013.61
2018-08-31T07:58:28.183Z,1013.63
2018-08-31T07:59:08.677Z,1013.64
2018-08-31T07:59:49.138Z,1013.63
2018-08-31T08:00:29.609Z,1013.61
2018-08-31T08:01:10.006Z,1013.64
2018-08-31T08:01:51.752Z,1013.62
2018-08-31T08:02:31.822Z,1013.65
2018-08-31T08:03:12.396Z,1013.64
2018-08-31T08:03:53.470Z,1013.65
2018-08-31T08:04:33.786Z,1013.65
2018-08-31T08:05:14.210Z,1013.67
2018-08-31T08:05:54.661Z,1013.7
2018-08-31T08:06:35.085Z,1013.66
2018-08-31T08:07:15.575Z,1013.68
2018-08-31T08:07:55.970Z,1013.7
2018-08-31T08:08:37.039Z,1013.68
2018-08-31T08:09:17.351Z,1013.71
2018-08-31T08:09:57.760Z,1013.71
2018-08-31T08:10:38.144Z,1013.7
2018-08-31T08:11:18.544Z,1013.7
2018-08-31T08:11:58.949Z,1013.67
2018-08-31T08:12:39.414Z,1013.72
2018-08-31T08:13:19.858Z,1013.72
2018-08-31T08:14:00.221Z,1013.71
2018-08-31T08:14:40.834Z,1013.74
2018-08-31T08:15:21.222Z,1013.73
2018-08-31T08:16:01.893Z,1013.74
2018-08-31T08:16:43.354Z,1013.74
2018-08-31T08:17:23.883Z,1013.74
2018-08-31T08:18:04.364Z,1013.74
2018-08-31T08:22:20.153Z,1013.75
2018-08-31T08:25:07.296Z,1013.73
2018-08-31T08:25:49.235Z,1013.76
2018-08-31T08:26:30.209Z,1013.75
2018-08-31T08:27:10.652Z,1013.75
2018-08-31T08:27:53.060Z,1013.77
2018-08-31T08:29:47.488Z,1013.76
2018-08-31T08:30:27.956Z,1013.76
2018-08-31T08:32:51.480Z,1013.79
2018-08-31T08:36:11.361Z,1013.8
2018-08-31T08:37:12.459Z,1013.8
2018-08-31T08:40:12.588Z,1013.78
2018-08-31T08:42:59.728Z,1013.81
2018-08-31T08:43:42.209Z,1013.76
2018-08-31T08:44:22.821Z,1013.79
2018-08-31T08:45:03.320Z,1013.75
2018-08-31T08:45:43.853Z,1013.73
2018-08-31T08:46:24.429Z,1013.75
2018-08-31T08:47:05.115Z,1013.79
2018-08-31T08:47:48.131Z,1013.73
2018-08-31T08:48:28.423Z,1013.7
2018-08-31T08:49:08.908Z,1013.75
2018-08-31T08:49:50.207Z,1013.75
2018-08-31T08:50:31.512Z,1013.78
2018-08-31T08:51:13.251Z,1013.74
2018-08-31T08:51:53.638Z,1013.76
2018-08-31T08:52:34.217Z,1013.76
2018-08-31T08:53:14.557Z,1013.77
2018-08-31T08:53:55.238Z,1013.81
2018-08-31T08:54:38.087Z,1013.81
2018-08-31T08:55:18.673Z,1013.77
2018-08-31T08:56:01.208Z,1013.79
2018-08-31T08:56:46.842Z,1013.75
2018-08-31T08:57:27.305Z,1013.72
2018-08-31T08:58:07.766Z,1013.72
2018-08-31T08:58:48.184Z,1013.72
2018-08-31T08:59:28.550Z,1013.72
2018-08-31T09:00:08.992Z,1013.76
2018-08-31T09:00:49.395Z,1013.74
2018-08-31T09:01:29.843Z,1013.73
2018-08-31T09:02:11.857Z,1013.72
2018-08-31T09:02:52.802Z,1013.77
2018-08-31T09:03:33.311Z,1013.76
2018-08-31T09:04:13.805Z,1013.7
2018-08-31T09:04:54.935Z,1013.76
2018-08-31T09:05:35.070Z,1013.74
2018-08-31T09:06:15.978Z,1013.73
2018-08-31T09:06:59.447Z,1013.74
2018-08-31T09:07:40.159Z,1013.74
2018-08-31T09:08:24.457Z,1013.75
2018-08-31T09:09:05.414Z,1013.76
2018-08-31T09:09:49.888Z,1013.74
2018-08-31T09:10:30.430Z,1013.78
2018-08-31T09:11:13.796Z,1013.79
2018-08-31T09:11:56.158Z,1013.77
2018-08-31T09:12:36.536Z,1013.77
2018-08-31T09:13:18.868Z,1013.77
2018-08-31T09:14:00.959Z,1013.78
2018-08-31T09:14:44.630Z,1013.74
2018-08-31T09:17:23.891Z,1013.77
2018-08-31T09:18:04.547Z,1013.77
2018-08-31T09:20:26.994Z,1013.8
2018-08-31T09:21:06.751Z,1013.82
2018-08-31T09:21:47.424Z,1013.76
2018-08-31T09:22:32.659Z,1013.76
2018-08-31T09:23:16.554Z,1013.78
2018-08-31T09:24:04.898Z,1013.78
2018-08-31T09:24:45.350Z,1013.76
2018-08-31T09:25:41.263Z,1013.3
2018-08-31T09:26:40.373Z,1013.76
2018-08-31T09:27:22.354Z,1013.76
2018-08-31T09:29:41.946Z,1013.7
2018-08-31T09:30:28.178Z,1013.75
2018-08-31T09:31:14.271Z,1013.72
2018-08-31T09:31:56.243Z,1013.73
2018-08-31T09:32:39.975Z,1013.69
2018-08-31T09:33:24.034Z,1013.69
2018-08-31T09:34:08.200Z,1013.73
2018-08-31T09:34:50.140Z,1013.71
2018-08-31T09:35:31.071Z,1013.7
2018-08-31T09:36:13.810Z,1013.72
2018-08-31T09:36:55.969Z,1013.74
2018-08-31T09:37:36.603Z,1013.72